Time;durP1;ratioP1;P1;durP2;ratioP2;P2;SDS_P1;SDS_P2;PMS_P1;PMS_P2;Temp;Humidity;BMP_temperature;BMP_pressure;BME280_temperature;BME280_humidity;BME280_pressure;Samples;Min_cycle;Max_cycle;Signal;HPM_P1;HPM_P2
2023/08/18 04:01:29;;;;;;;1.07;1.07;;;15.80;99.90;;;;;;6113944;23;20536;-70
2023/08/18 04:03:59;;;;;;;1.53;1.33;;;15.80;99.90;;;;;;6150841;23;20478;-70
2023/08/18 04:06:26;;;;;;;1.63;1.63;;;15.90;99.90;;;;;;6152989;23;20450;-70
2023/08/18 04:09:06;;;;;;;2.93;2.83;;;15.90;99.90;;;;;;6151886;23;20418;-70
2023/08/18 04:11:32;;;;;;;1.97;1.80;;;15.90;99.90;;;;;;6152946;23;20442;-70
2023/08/18 04:13:59;;;;;;;1.23;1.23;;;15.90;99.90;;;;;;6153930;23;20419;-71
2023/08/18 04:16:26;;;;;;;2.60;2.30;;;15.90;99.90;;;;;;6150837;23;20886;-72
2023/08/18 04:18:54;;;;;;;2.27;2.17;;;15.90;99.90;;;;;;6152253;23;20403;-72
2023/08/18 04:21:20;;;;;;;2.07;2.07;;;15.90;99.90;;;;;;6153209;23;20442;-72
2023/08/18 04:23:47;;;;;;;2.20;2.17;;;15.90;99.90;;;;;;6153381;23;20511;-71
2023/08/18 04:26:14;;;;;;;1.63;1.63;;;15.90;99.90;;;;;;6153634;23;20426;-72
2023/08/18 04:28:41;;;;;;;1.17;1.17;;;16.00;99.90;;;;;;6153303;23;20454;-69
2023/08/18 04:31:07;;;;;;;2.70;1.80;;;16.00;99.90;;;;;;6153012;23;20513;-70
2023/08/18 04:33:34;;;;;;;1.87;1.77;;;16.00;99.90;;;;;;6153337;23;20525;-73
2023/08/18 04:36:03;;;;;;;1.90;1.90;;;15.90;99.90;;;;;;6153495;23;20426;-73
2023/08/18 04:38:29;;;;;;;3.20;2.53;;;16.00;99.90;;;;;;6153603;23;20494;-73
2023/08/18 04:40:57;;;;;;;2.23;2.10;;;16.00;99.90;;;;;;6153203;23;20474;-73
2023/08/18 04:43:24;;;;;;;2.60;2.40;;;16.00;99.90;;;;;;6153804;23;20754;-72
2023/08/18 04:45:52;;;;;;;1.87;1.87;;;16.10;99.90;;;;;;6153222;23;20418;-73
2023/08/18 04:48:19;;;;;;;1.67;1.23;;;16.10;99.90;;;;;;6153379;23;20447;-72
2023/08/18 04:50:46;;;;;;;2.13;2.10;;;16.10;99.90;;;;;;6152956;23;20446;-72
2023/08/18 04:53:14;;;;;;;2.30;2.17;;;16.10;99.90;;;;;;6153495;23;20441;-72
2023/08/18 04:55:41;;;;;;;3.80;2.03;;;16.10;99.90;;;;;;6152568;23;20418;-72
2023/08/18 04:58:12;;;;;;;5.47;2.40;;;16.20;99.90;;;;;;6152928;23;20455;-72
2023/08/18 05:00:39;;;;;;;1.80;1.80;;;16.20;99.90;;;;;;6153224;23;20450;-72
2023/08/18 05:03:06;;;;;;;2.37;2.30;;;16.20;99.90;;;;;;6154046;23;20419;-73
2023/08/18 05:05:33;;;;;;;4.23;1.83;;;16.20;99.90;;;;;;6153653;23;20427;-72
2023/08/18 05:08:00;;;;;;;2.07;1.97;;;16.30;99.90;;;;;;6153190;23;20767;-73
2023/08/18 05:10:28;;;;;;;2.57;2.47;;;16.20;99.90;;;;;;6152310;23;20422;-72
2023/08/18 05:12:55;;;;;;;2.13;2.13;;;16.30;99.90;;;;;;6153451;23;20423;-71
2023/08/18 05:15:22;;;;;;;2.40;2.40;;;16.30;99.90;;;;;;6153256;23;20724;-72
2023/08/18 05:17:49;;;;;;;2.30;2.20;;;16.30;99.90;;;;;;6152981;23;20990;-72
2023/08/18 05:20:16;;;;;;;3.70;2.50;;;16.40;99.90;;;;;;6153092;23;20426;-73
2023/08/18 05:22:43;;;;;;;2.60;2.50;;;16.40;99.90;;;;;;6152892;23;20425;-71
2023/08/18 05:25:10;;;;;;;2.73;2.57;;;16.50;99.90;;;;;;6152632;23;20419;-71
2023/08/18 05:27:39;;;;;;;3.43;2.40;;;16.40;99.90;;;;;;6153178;23;20450;-71
2023/08/18 05:30:07;;;;;;;2.70;2.60;;;16.50;99.90;;;;;;6152289;23;20724;-72
2023/08/18 05:32:34;;;;;;;4.37;2.57;;;16.50;99.90;;;;;;6152615;23;20443;-73
2023/08/18 05:35:01;;;;;;;2.03;1.83;;;16.50;99.90;;;;;;6153152;23;20418;-74
2023/08/18 05:37:27;;;;;;;2.10;2.00;;;16.50;99.90;;;;;;6152062;23;20411;-72
2023/08/18 05:39:55;;;;;;;2.33;2.20;;;16.60;99.90;;;;;;6152391;23;20420;-72
2023/08/18 05:42:21;;;;;;;3.17;3.00;;;16.60;99.90;;;;;;6151744;23;20458;-72
2023/08/18 05:44:49;;;;;;;7.40;2.60;;;16.60;99.90;;;;;;6153353;23;20483;-73
2023/08/18 05:47:16;;;;;;;2.83;2.63;;;16.60;99.90;;;;;;6152071;23;20447;-72
2023/08/18 05:49:43;;;;;;;1.80;1.70;;;16.60;99.90;;;;;;6152864;23;20427;-73
2023/08/18 05:52:09;;;;;;;9.43;2.90;;;16.70;99.90;;;;;;6151480;23;20440;-70
2023/08/18 05:54:36;;;;;;;2.03;1.90;;;16.70;99.90;;;;;;6153336;23;20427;-72
2023/08/18 05:57:03;;;;;;;2.30;2.20;;;16.80;99.90;;;;;;6151127;23;20832;-73
2023/08/18 05:59:31;;;;;;;4.30;3.87;;;16.80;99.90;;;;;;6148636;23;20446;-71
2023/08/18 06:02:00;;;;;;;3.30;3.10;;;16.90;99.90;;;;;;6152269;23;20454;-72
2023/08/18 06:04:26;;;;;;;3.20;3.00;;;17.00;99.90;;;;;;6151636;23;20428;-72
2023/08/18 06:06:53;;;;;;;3.87;3.60;;;17.00;99.90;;;;;;6152116;23;20420;-73
2023/08/18 06:09:20;;;;;;;7.13;3.53;;;17.20;99.90;;;;;;6151801;23;20427;-74
2023/08/18 06:11:46;;;;;;;4.70;3.23;;;17.20;99.90;;;;;;6152465;23;20452;-72
2023/08/18 06:14:13;;;;;;;4.47;2.90;;;17.20;99.90;;;;;;6153212;23;20756;-73
2023/08/18 06:16:40;;;;;;;4.63;3.30;;;17.30;99.90;;;;;;6162384;23;20424;-73
2023/08/18 06:19:08;;;;;;;10.00;4.07;;;17.40;99.90;;;;;;6151972;23;20945;-69
2023/08/18 06:21:35;;;;;;;5.80;2.77;;;17.40;99.90;;;;;;6152741;23;20449;-72
2023/08/18 06:24:02;;;;;;;3.83;3.47;;;17.40;99.90;;;;;;6152571;23;20420;-73
2023/08/18 06:26:29;;;;;;;3.37;3.17;;;17.40;99.90;;;;;;6151728;23;20428;-73
2023/08/18 06:28:56;;;;;;;3.30;3.00;;;17.50;99.90;;;;;;6154128;23;20759;-73
2023/08/18 06:31:22;;;;;;;4.17;3.57;;;17.50;99.90;;;;;;6154514;23;20519;-73
2023/08/18 06:33:49;;;;;;;3.60;3.30;;;17.50;99.90;;;;;;6154778;23;20430;-73
2023/08/18 06:36:17;;;;;;;3.63;3.33;;;17.50;99.90;;;;;;6154353;23;20422;-73
2023/08/18 06:38:44;;;;;;;3.60;3.30;;;17.60;99.90;;;;;;6154886;23;20756;-72
2023/08/18 06:41:11;;;;;;;3.40;3.10;;;17.60;99.90;;;;;;6153622;23;20440;-71
2023/08/18 06:43:38;;;;;;;4.73;4.23;;;17.60;99.90;;;;;;6154113;23;20760;-72
2023/08/18 06:46:05;;;;;;;4.20;3.30;;;17.60;99.90;;;;;;6155317;23;20422;-73
2023/08/18 06:48:32;;;;;;;3.30;3.00;;;17.60;99.90;;;;;;6154566;23;20478;-73
2023/08/18 06:50:59;;;;;;;6.60;3.40;;;17.60;99.90;;;;;;6154316;23;20463;-74
2023/08/18 06:53:27;;;;;;;4.07;3.63;;;17.60;99.90;;;;;;6154545;23;20426;-72
2023/08/18 06:55:56;;;;;;;3.97;3.77;;;17.60;99.90;;;;;;6154627;23;20420;-74
2023/08/18 06:58:23;;;;;;;4.67;3.40;;;17.70;99.90;;;;;;6154026;23;20418;-73
2023/08/18 07:00:50;;;;;;;5.40;3.33;;;17.70;99.90;;;;;;6153386;23;20518;-73
2023/08/18 07:03:17;;;;;;;4.53;4.10;;;17.70;99.90;;;;;;6154217;23;20422;-72
2023/08/18 07:05:43;;;;;;;6.43;3.47;;;17.80;99.90;;;;;;6154257;23;20574;-71
2023/08/18 07:08:10;;;;;;;5.40;3.67;;;17.80;99.90;;;;;;6154513;23;20476;-72
2023/08/18 07:10:38;;;;;;;5.30;3.73;;;17.80;99.90;;;;;;6153288;23;20468;-73
2023/08/18 07:13:05;;;;;;;5.17;4.50;;;17.80;99.90;;;;;;6152872;23;20525;-74
2023/08/18 07:15:32;;;;;;;3.80;3.50;;;17.80;99.90;;;;;;6151666;23;20419;-72
2023/08/18 07:17:59;;;;;;;6.00;3.53;;;17.90;99.90;;;;;;6153148;23;20424;-73
2023/08/18 07:20:25;;;;;;;3.90;3.53;;;17.90;99.90;;;;;;6153395;23;20428;-73
2023/08/18 07:22:53;;;;;;;4.27;4.07;;;18.00;99.90;;;;;;6152787;23;20422;-71
2023/08/18 07:25:20;;;;;;;3.30;3.10;;;18.00;99.90;;;;;;6153613;23;20454;-69
2023/08/18 07:27:48;;;;;;;7.27;3.73;;;18.00;99.90;;;;;;6153653;23;20445;-72
2023/08/18 07:30:15;;;;;;;5.87;3.67;;;18.00;99.90;;;;;;6151394;23;20424;-72
2023/08/18 07:32:41;;;;;;;3.97;3.67;;;18.10;99.90;;;;;;6154408;23;20814;-72
2023/08/18 07:35:09;;;;;;;3.20;3.00;;;18.20;99.90;;;;;;6153372;23;20535;-72
2023/08/18 07:37:36;;;;;;;9.13;4.83;;;18.20;99.90;;;;;;6152466;23;20418;-71
2023/08/18 07:40:05;;;;;;;5.20;4.63;;;18.20;99.90;;;;;;6153630;23;20422;-72
2023/08/18 07:42:32;;;;;;;4.00;3.70;;;18.20;99.90;;;;;;6152926;23;20504;-72
2023/08/18 07:45:00;;;;;;;4.83;4.30;;;18.20;99.90;;;;;;6152832;23;20935;-71
2023/08/18 07:47:27;;;;;;;3.67;3.50;;;18.30;99.90;;;;;;6153531;23;20535;-71
2023/08/18 07:49:54;;;;;;;4.20;3.90;;;18.30;99.90;;;;;;6152390;23;20422;-70
2023/08/18 07:52:20;;;;;;;4.33;3.93;;;18.30;99.90;;;;;;6153623;23;20438;-70
2023/08/18 07:54:47;;;;;;;4.43;4.03;;;18.30;99.90;;;;;;6153139;23;20426;-70
2023/08/18 07:57:14;;;;;;;3.87;3.60;;;18.40;99.90;;;;;;6154239;23;20430;-70
2023/08/18 07:59:41;;;;;;;4.17;3.90;;;18.40;99.90;;;;;;6152575;23;20418;-70
2023/08/18 08:02:09;;;;;;;4.77;3.83;;;18.50;99.90;;;;;;6153260;23;20745;-70
2023/08/18 08:04:36;;;;;;;5.37;4.10;;;18.60;99.90;;;;;;6152804;23;20419;-71
2023/08/18 08:07:04;;;;;;;4.77;4.37;;;18.60;99.90;;;;;;6153111;23;20418;-70
2023/08/18 08:09:31;;;;;;;4.47;4.10;;;18.70;99.90;;;;;;6153775;23;20460;-72
2023/08/18 08:11:58;;;;;;;6.40;4.70;;;18.70;99.90;;;;;;6153888;23;20439;-72
2023/08/18 08:14:25;;;;;;;5.07;4.53;;;18.80;99.90;;;;;;6152467;23;20422;-72
2023/08/18 08:16:51;;;;;;;4.60;4.00;;;18.80;99.90;;;;;;6153769;23;20429;-70
2023/08/18 08:19:19;;;;;;;4.63;4.30;;;18.80;99.90;;;;;;6152479;23;20745;-70
2023/08/18 08:21:46;;;;;;;4.07;3.60;;;18.90;99.90;;;;;;6153206;23;20446;-70
2023/08/18 08:24:13;;;;;;;4.40;4.10;;;19.00;99.90;;;;;;6153909;23;20708;-70
2023/08/18 08:26:40;;;;;;;4.13;3.83;;;19.00;99.90;;;;;;6153953;23;20420;-71
2023/08/18 08:29:07;;;;;;;4.50;4.20;;;19.10;99.90;;;;;;6152731;23;20443;-70
2023/08/18 08:31:33;;;;;;;4.70;4.37;;;19.20;99.90;;;;;;6150289;23;20748;-71
2023/08/18 08:34:00;;;;;;;5.20;4.70;;;19.30;99.90;;;;;;6151863;23;20416;-70
2023/08/18 08:36:32;;;;;;;4.83;4.30;;;19.40;99.90;;;;;;6152476;23;20426;-70
2023/08/18 08:38:59;;;;;;;4.80;4.47;;;19.40;99.90;;;;;;6153608;23;20408;-71
2023/08/18 08:41:26;;;;;;;5.30;4.80;;;19.40;99.90;;;;;;6153783;23;20447;-68
2023/08/18 08:43:53;;;;;;;5.03;4.63;;;19.40;99.90;;;;;;6153557;23;20732;-70
2023/08/18 08:46:19;;;;;;;4.00;3.80;;;19.40;99.90;;;;;;6153184;23;20424;-71
2023/08/18 08:48:48;;;;;;;4.70;4.30;;;19.50;99.90;;;;;;6153076;23;20451;-70
2023/08/18 08:51:16;;;;;;;4.30;3.87;;;19.60;99.90;;;;;;6153756;23;20771;-70
2023/08/18 08:53:49;;;;;;;3.90;3.60;;;19.60;99.90;;;;;;6153429;23;20516;-71
2023/08/18 08:56:18;;;;;;;4.40;4.10;;;19.60;99.90;;;;;;6153817;23;20410;-71
2023/08/18 08:58:46;;;;;;;5.53;4.87;;;19.70;99.90;;;;;;6153533;23;20421;-71
2023/08/18 09:01:13;;;;;;;4.77;4.47;;;19.80;99.90;;;;;;6150166;23;20453;-71
2023/08/18 09:03:43;;;;;;;4.47;4.17;;;19.90;99.90;;;;;;6150971;23;20421;-70
2023/08/18 09:06:11;;;;;;;5.00;4.70;;;19.90;99.90;;;;;;6151489;23;20414;-70
2023/08/18 09:08:38;;;;;;;4.33;4.00;;;20.00;99.90;;;;;;6152331;23;20536;-70
2023/08/18 09:11:06;;;;;;;4.27;3.87;;;20.00;99.90;;;;;;6152596;23;20965;-70
2023/08/18 09:13:34;;;;;;;4.37;3.97;;;20.10;99.90;;;;;;6152800;23;20420;-70
2023/08/18 09:16:03;;;;;;;4.43;4.17;;;20.30;99.90;;;;;;6152227;23;20428;-70
2023/08/18 09:18:31;;;;;;;4.83;4.43;;;20.30;99.90;;;;;;6152555;23;20444;-70
2023/08/18 09:21:00;;;;;;;7.73;5.13;;;20.30;99.90;;;;;;6152741;23;20446;-70
2023/08/18 09:23:28;;;;;;;5.73;3.90;;;20.30;99.90;;;;;;6151783;23;20471;-70
2023/08/18 09:25:57;;;;;;;4.37;3.97;;;20.40;99.90;;;;;;6151523;23;20890;-70
2023/08/18 09:28:25;;;;;;;4.53;3.93;;;20.60;99.90;;;;;;6152211;23;20446;-70
2023/08/18 09:30:52;;;;;;;4.50;4.10;;;20.70;99.90;;;;;;6151380;23;20449;-70
2023/08/18 09:33:23;;;;;;;4.17;3.87;;;20.70;99.90;;;;;;6152793;23;20445;-70
2023/08/18 09:35:58;;;;;;;3.50;3.30;;;20.70;99.90;;;;;;6152705;23;20414;-70
2023/08/18 09:38:27;;;;;;;3.90;3.70;;;20.90;99.90;;;;;;6153455;23;20730;-70
2023/08/18 09:40:55;;;;;;;4.83;4.40;;;21.00;99.90;;;;;;6152547;23;20445;-70
2023/08/18 09:43:22;;;;;;;3.87;3.67;;;21.10;99.90;;;;;;6152150;23;20419;-71
2023/08/18 09:45:51;;;;;;;4.17;3.90;;;21.00;99.90;;;;;;6152273;23;20416;-71
2023/08/18 09:48:20;;;;;;;4.50;4.30;;;21.10;99.90;;;;;;6152415;23;20473;-70
2023/08/18 09:50:50;;;;;;;6.63;4.47;;;21.20;99.90;;;;;;6152609;23;20439;-70
2023/08/18 09:53:18;;;;;;;4.70;4.30;;;21.30;99.90;;;;;;6153887;23;20424;-70
2023/08/18 09:55:45;;;;;;;5.20;3.90;;;21.50;99.90;;;;;;6153728;23;20423;-70
2023/08/18 09:58:22;;;;;;;3.20;3.10;;;21.70;99.90;;;;;;6153330;23;20749;-70
2023/08/18 10:00:56;;;;;;;3.60;3.40;;;21.70;99.90;;;;;;6153275;23;20452;-70
2023/08/18 10:03:26;;;;;;;3.50;3.30;;;21.80;99.90;;;;;;6153633;23;20428;-71
2023/08/18 10:05:53;;;;;;;3.90;3.70;;;21.90;99.90;;;;;;6154709;23;20425;-71
2023/08/18 10:08:22;;;;;;;4.13;3.93;;;21.70;99.90;;;;;;6155238;23;20915;-71
2023/08/18 10:10:50;;;;;;;4.50;4.20;;;21.70;99.90;;;;;;6153728;23;20461;-71
2023/08/18 10:15:45;;;;;;;5.73;4.57;;;21.70;99.90;;;;;;6150112;23;20461;-68
2023/08/18 10:18:14;;;;;;;5.40;4.90;;;21.80;99.90;;;;;;6154852;23;20424;-68
2023/08/18 10:20:49;;;;;;;5.13;4.83;;;21.90;99.90;;;;;;6154075;23;20422;-68
2023/08/18 10:23:16;;;;;;;3.87;3.67;;;21.90;99.90;;;;;;6154487;23;20437;-68
2023/08/18 10:25:45;;;;;;;5.80;4.70;;;21.90;99.90;;;;;;6154239;23;20434;-68
2023/08/18 10:28:17;;;;;;;4.63;4.37;;;21.90;99.90;;;;;;6153822;23;20414;-68
2023/08/18 10:30:51;;;;;;;4.83;4.53;;;21.80;99.90;;;;;;6152806;23;20435;-68
2023/08/18 10:33:28;;;;;;;5.33;5.03;;;21.80;99.90;;;;;;6153227;23;20441;-68
2023/08/18 10:35:57;;;;;;;4.93;4.47;;;21.80;99.90;;;;;;6154215;23;20938;-68
2023/08/18 10:38:27;;;;;;;7.73;7.00;;;21.60;99.90;;;;;;6153319;23;20906;-69
2023/08/18 10:40:54;;;;;;;5.27;4.23;;;21.60;99.90;;;;;;6150449;23;20438;-68
2023/08/18 10:43:21;;;;;;;5.07;4.67;;;21.60;99.90;;;;;;6153756;23;20511;-68
2023/08/18 10:45:51;;;;;;;5.03;4.60;;;21.50;99.90;;;;;;6154054;23;20448;-68
2023/08/18 10:48:18;;;;;;;5.20;4.80;;;21.70;99.90;;;;;;6154052;23;20425;-68
2023/08/18 10:50:47;;;;;;;5.20;4.70;;;21.80;99.90;;;;;;6153409;23;20458;-67
2023/08/18 10:53:16;;;;;;;4.97;4.60;;;21.90;99.90;;;;;;6154120;23;20426;-68
2023/08/18 10:55:44;;;;;;;10.37;6.93;;;21.90;99.90;;;;;;6153987;23;20443;-68
2023/08/18 10:58:11;;;;;;;5.53;5.10;;;21.90;99.90;;;;;;6153779;23;20909;-67
2023/08/18 11:00:38;;;;;;;6.20;5.60;;;22.00;99.90;;;;;;6152868;23;20425;-67
2023/08/18 11:03:07;;;;;;;5.27;4.83;;;22.10;99.90;;;;;;6154154;23;20906;-67
2023/08/18 11:05:34;;;;;;;5.67;4.23;;;22.20;99.90;;;;;;6149938;23;20449;-68
2023/08/18 11:08:03;;;;;;;5.17;4.80;;;22.30;99.90;;;;;;6154112;23;20425;-68
2023/08/18 11:10:32;;;;;;;6.53;5.93;;;22.40;99.90;;;;;;6152850;23;20985;-68
2023/08/18 11:12:59;;;;;;;8.40;4.83;;;22.50;99.90;;;;;;6153595;23;20444;-67
2023/08/18 11:15:25;;;;;;;5.87;5.30;;;22.50;99.90;;;;;;6153449;23;20528;-68
2023/08/18 11:17:53;;;;;;;8.20;5.47;;;22.50;99.90;;;;;;6146367;23;21269;-67
2023/08/18 11:20:19;;;;;;;5.67;5.27;;;22.40;99.90;;;;;;6147978;23;21149;-68
2023/08/18 11:22:48;;;;;;;6.27;5.33;;;22.50;99.90;;;;;;6152083;23;20422;-68
2023/08/18 11:25:17;;;;;;;6.53;4.87;;;22.60;99.90;;;;;;6152668;23;20493;-68
2023/08/18 11:27:45;;;;;;;5.53;5.13;;;22.60;99.90;;;;;;6152959;23;20418;-68
2023/08/18 11:30:13;;;;;;;5.57;5.27;;;22.60;99.90;;;;;;6151188;23;20542;-68
2023/08/18 11:32:40;;;;;;;4.67;4.27;;;22.60;99.90;;;;;;6152606;23;20443;-68
2023/08/18 11:35:09;;;;;;;5.63;5.23;;;22.70;99.90;;;;;;6151836;23;20440;-68
2023/08/18 11:37:40;;;;;;;5.03;4.73;;;22.70;99.90;;;;;;6152855;23;20421;-68
2023/08/18 11:40:09;;;;;;;4.60;4.40;;;22.90;99.90;;;;;;6149616;23;20400;-68
2023/08/18 11:42:39;;;;;;;3.90;3.70;;;23.00;99.90;;;;;;6152687;23;20471;-68
2023/08/18 11:45:08;;;;;;;4.60;4.30;;;23.00;99.90;;;;;;6153008;23;20794;-68
2023/08/18 11:47:36;;;;;;;4.93;4.70;;;22.90;99.90;;;;;;6153633;23;20807;-68
2023/08/18 11:50:05;;;;;;;5.17;4.70;;;23.00;99.90;;;;;;6152227;23;20478;-68
2023/08/18 11:52:41;;;;;;;4.93;4.57;;;23.00;99.90;;;;;;6153407;23;20942;-68
2023/08/18 11:55:09;;;;;;;4.83;4.50;;;23.00;99.90;;;;;;6152653;23;20748;-68
2023/08/18 11:57:40;;;;;;;4.60;4.27;;;23.00;99.90;;;;;;6153872;23;20420;-68
2023/08/18 12:00:12;;;;;;;3.57;3.37;;;23.00;99.90;;;;;;6150141;23;20406;-68
2023/08/18 12:02:42;;;;;;;4.87;4.57;;;23.00;99.90;;;;;;6153921;23;20403;-68
2023/08/18 12:05:19;;;;;;;4.43;4.23;;;23.10;99.90;;;;;;6154175;23;20467;-68
2023/08/18 12:07:46;;;;;;;6.50;5.67;;;23.10;99.90;;;;;;6152297;23;20409;-69
2023/08/18 12:10:12;;;;;;;5.40;4.70;;;23.20;99.90;;;;;;6160801;23;20461;-67
2023/08/18 12:12:40;;;;;;;4.87;4.57;;;23.30;99.90;;;;;;6151962;23;20934;-68
2023/08/18 12:15:08;;;;;;;5.47;5.07;;;23.40;99.90;;;;;;6152693;23;20447;-67
2023/08/18 12:17:34;;;;;;;5.10;4.80;;;23.50;99.90;;;;;;6152295;23;20426;-67
2023/08/18 12:20:02;;;;;;;5.07;4.67;;;23.60;99.90;;;;;;6153320;23;20415;-67
2023/08/18 12:22:28;;;;;;;4.67;4.37;;;23.70;99.90;;;;;;6152393;23;20460;-67
2023/08/18 12:24:55;;;;;;;5.40;5.00;;;23.70;99.90;;;;;;6152509;23;20447;-68
2023/08/18 12:27:26;;;;;;;5.20;4.97;;;23.70;99.90;;;;;;6152823;23;20427;-67
2023/08/18 12:29:54;;;;;;;6.40;5.87;;;23.80;99.90;;;;;;6153194;23;20612;-67
2023/08/18 12:32:21;;;;;;;5.73;5.33;;;23.90;99.90;;;;;;6153165;23;20420;-67
2023/08/18 12:34:50;;;;;;;4.50;4.13;;;23.90;99.90;;;;;;6151166;23;21153;-67
2023/08/18 12:37:16;;;;;;;4.70;4.30;;;24.00;99.90;;;;;;6153652;23;20542;-67
2023/08/18 12:39:43;;;;;;;8.27;5.50;;;23.90;99.90;;;;;;6152771;23;21243;-67
2023/08/18 12:42:10;;;;;;;5.70;5.20;;;23.90;99.90;;;;;;6152905;23;20424;-68
2023/08/18 12:44:38;;;;;;;4.60;4.40;;;24.00;99.90;;;;;;6151390;23;20442;-67
2023/08/18 12:47:06;;;;;;;4.20;4.00;;;24.10;99.90;;;;;;6153133;23;20443;-68
2023/08/18 12:49:33;;;;;;;4.77;4.47;;;24.20;99.90;;;;;;6153445;23;20447;-68
2023/08/18 12:52:01;;;;;;;4.90;4.63;;;24.30;99.90;;;;;;6154024;23;20910;-67
2023/08/18 12:54:29;;;;;;;5.07;4.80;;;24.40;99.90;;;;;;6152725;23;20819;-67
2023/08/18 12:56:57;;;;;;;4.40;4.20;;;24.50;99.90;;;;;;6153805;23;20420;-68
2023/08/18 12:59:24;;;;;;;5.27;5.00;;;24.50;99.90;;;;;;6153079;23;20428;-68
2023/08/18 13:01:51;;;;;;;4.73;4.53;;;24.50;99.90;;;;;;6153552;23;20424;-68
2023/08/18 13:04:19;;;;;;;4.73;4.43;;;24.60;99.90;;;;;;6153797;23;20442;-68
2023/08/18 13:06:45;;;;;;;5.10;4.60;;;24.70;99.90;;;;;;6153991;23;20448;-69
2023/08/18 13:09:12;;;;;;;5.23;4.83;;;24.70;99.90;;;;;;6152872;23;20485;-68
2023/08/18 13:11:39;;;;;;;5.93;5.50;;;24.80;99.90;;;;;;6153929;23;20422;-68
2023/08/18 13:14:06;;;;;;;6.43;6.00;;;24.90;99.90;;;;;;6153159;23;20961;-68
2023/08/18 13:16:35;;;;;;;5.70;5.30;;;25.00;99.90;;;;;;6154607;23;20720;-68
2023/08/18 13:19:01;;;;;;;4.83;4.43;;;25.10;99.90;;;;;;6153214;23;20759;-67
2023/08/18 13:21:29;;;;;;;7.60;5.93;;;25.00;99.90;;;;;;6153897;23;20429;-67
2023/08/18 13:23:56;;;;;;;5.63;5.27;;;25.20;99.90;;;;;;6153093;23;20789;-67
2023/08/18 13:26:23;;;;;;;5.70;5.30;;;25.30;99.90;;;;;;6153043;23;20419;-67
2023/08/18 13:28:49;;;;;;;5.17;4.90;;;25.40;99.90;;;;;;6153017;23;20426;-67
2023/08/18 13:31:17;;;;;;;6.33;5.90;;;25.40;99.90;;;;;;6153558;23;20450;-67
2023/08/18 13:33:44;;;;;;;5.60;5.30;;;25.50;99.90;;;;;;6153004;23;20440;-67
2023/08/18 13:36:11;;;;;;;6.57;6.03;;;25.60;99.90;;;;;;6154504;23;20751;-67
2023/08/18 13:38:39;;;;;;;5.53;5.03;;;25.50;99.90;;;;;;6155040;23;20485;-67
2023/08/18 13:41:05;;;;;;;5.83;5.50;;;25.50;99.90;;;;;;6155227;23;20480;-67
2023/08/18 13:43:32;;;;;;;8.30;5.73;;;25.50;99.90;;;;;;6154711;23;20424;-67
2023/08/18 13:45:59;;;;;;;6.23;5.80;;;25.60;99.90;;;;;;6155681;23;20421;-67
2023/08/18 13:48:26;;;;;;;5.43;5.07;;;25.60;99.90;;;;;;6156175;23;20451;-67
2023/08/18 13:50:54;;;;;;;5.43;5.03;;;25.70;99.90;;;;;;6154451;23;21028;-67
2023/08/18 13:53:20;;;;;;;7.00;5.87;;;25.80;99.90;;;;;;6155479;23;20994;-67
2023/08/18 13:55:49;;;;;;;5.40;5.10;;;25.80;99.90;;;;;;6154531;23;20421;-67
2023/08/18 13:58:15;;;;;;;5.37;4.97;;;25.90;99.90;;;;;;6156077;23;20723;-67
2023/08/18 14:00:43;;;;;;;5.90;5.50;;;25.90;99.90;;;;;;6154805;23;20520;-67
2023/08/18 14:03:10;;;;;;;5.13;4.80;;;25.80;99.90;;;;;;6154989;23;20431;-68
2023/08/18 14:05:41;;;;;;;5.07;4.67;;;25.80;99.90;;;;;;6154941;23;20767;-69
2023/08/18 14:08:08;;;;;;;5.97;5.57;;;26.00;99.90;;;;;;6153508;23;20405;-67
2023/08/18 14:10:36;;;;;;;5.60;5.13;;;26.00;99.90;;;;;;6153454;23;20464;-68
2023/08/18 14:13:05;;;;;;;5.60;5.20;;;26.10;99.90;;;;;;6153804;23;20774;-67
2023/08/18 14:15:31;;;;;;;5.77;5.47;;;26.10;99.90;;;;;;6153316;23;20458;-68
2023/08/18 14:17:58;;;;;;;4.83;4.17;;;26.20;99.90;;;;;;6155305;23;20440;-67
2023/08/18 14:20:25;;;;;;;5.27;5.00;;;26.20;99.90;;;;;;6153519;23;20795;-67
2023/08/18 14:22:54;;;;;;;5.37;4.80;;;26.30;99.90;;;;;;6155641;23;20422;-67
2023/08/18 14:25:21;;;;;;;5.97;5.37;;;26.40;99.90;;;;;;6154311;23;20474;-68
2023/08/18 14:27:49;;;;;;;4.90;4.57;;;26.40;99.90;;;;;;6154420;23;20422;-67
2023/08/18 14:30:17;;;;;;;4.70;4.50;;;26.40;99.90;;;;;;6154554;23;20456;-67
2023/08/18 14:32:44;;;;;;;4.83;4.53;;;26.40;99.90;;;;;;6154314;23;20431;-67
2023/08/18 14:35:11;;;;;;;5.23;4.90;;;26.50;99.90;;;;;;6154192;23;20989;-67
2023/08/18 14:37:39;;;;;;;4.37;4.20;;;26.50;99.90;;;;;;6153647;23;20426;-67
2023/08/18 14:40:09;;;;;;;4.73;4.43;;;26.60;99.90;;;;;;6152039;23;20422;-68
2023/08/18 14:42:36;;;;;;;4.63;4.43;;;26.60;99.90;;;;;;6153213;23;20406;-68
2023/08/18 14:45:04;;;;;;;4.70;4.50;;;26.60;99.90;;;;;;6153830;23;20441;-68
2023/08/18 14:47:33;;;;;;;5.07;4.77;;;26.60;99.90;;;;;;6154614;23;20421;-68
2023/08/18 14:50:00;;;;;;;4.50;4.30;;;26.60;99.90;;;;;;6153110;23;20532;-68
2023/08/18 14:52:27;;;;;;;5.00;4.60;;;26.60;99.90;;;;;;6155395;23;20464;-68
2023/08/18 14:54:53;;;;;;;4.80;4.50;;;26.70;99.90;;;;;;6154171;23;20449;-67
2023/08/18 14:57:20;;;;;;;4.20;4.07;;;26.70;99.90;;;;;;6154909;23;20424;-68
2023/08/18 14:59:47;;;;;;;5.17;4.83;;;26.70;99.90;;;;;;6154453;23;20753;-68
2023/08/18 15:02:14;;;;;;;4.17;3.97;;;26.80;99.90;;;;;;6154475;23;20422;-68
2023/08/18 15:04:42;;;;;;;4.87;4.57;;;26.80;99.90;;;;;;6152388;23;20441;-68
2023/08/18 15:07:08;;;;;;;5.33;4.83;;;26.90;99.90;;;;;;6154132;23;20754;-69
2023/08/18 15:09:35;;;;;;;4.90;4.60;;;26.90;99.90;;;;;;6152680;23;20425;-68
2023/08/18 15:12:03;;;;;;;4.07;3.77;;;27.00;99.90;;;;;;6153257;23;20424;-68
2023/08/18 15:14:31;;;;;;;5.13;4.83;;;27.00;99.90;;;;;;6151942;23;20454;-68
2023/08/18 15:16:57;;;;;;;5.03;4.63;;;27.00;99.90;;;;;;6150986;23;20425;-69
2023/08/18 15:19:25;;;;;;;4.20;4.00;;;27.00;99.90;;;;;;6153488;23;20754;-68
2023/08/18 15:21:53;;;;;;;4.63;4.33;;;27.10;99.90;;;;;;6154653;23;20744;-68
2023/08/18 15:24:20;;;;;;;4.60;4.30;;;27.10;99.90;;;;;;6154067;23;20810;-68
2023/08/18 15:26:47;;;;;;;5.07;4.67;;;27.10;99.90;;;;;;6155085;23;20496;-68
2023/08/18 15:29:14;;;;;;;4.80;4.50;;;27.10;99.90;;;;;;6153686;23;20485;-68
2023/08/18 15:31:40;;;;;;;4.93;4.63;;;27.20;99.90;;;;;;6154180;23;20450;-68
2023/08/18 15:34:07;;;;;;;4.43;4.23;;;27.30;99.90;;;;;;6152654;23;20680;-68
2023/08/18 15:36:34;;;;;;;4.20;4.00;;;27.40;99.90;;;;;;6153562;23;20423;-68
2023/08/18 15:39:04;;;;;;;4.23;4.13;;;27.40;99.90;;;;;;6152893;23;20907;-69
2023/08/18 15:41:32;;;;;;;5.17;4.77;;;27.50;99.90;;;;;;6154150;23;20903;-68
2023/08/18 15:43:59;;;;;;;3.20;3.20;;;27.50;99.90;;;;;;6154221;23;20441;-68
2023/08/18 15:46:26;;;;;;;4.70;4.50;;;27.50;99.90;;;;;;6153501;23;20435;-68
2023/08/18 15:48:53;;;;;;;4.50;4.23;;;27.60;99.90;;;;;;6153994;23;20422;-68
2023/08/18 15:51:20;;;;;;;4.27;4.07;;;27.60;99.90;;;;;;6154016;23;20435;-68
2023/08/18 15:53:47;;;;;;;4.70;4.50;;;27.60;99.90;;;;;;6153294;23;20439;-68
2023/08/18 15:56:15;;;;;;;4.33;3.93;;;27.60;99.90;;;;;;6154373;23;20419;-68
2023/08/18 15:58:41;;;;;;;4.87;4.57;;;27.60;99.90;;;;;;6153627;23;20423;-68
2023/08/18 16:01:08;;;;;;;5.10;4.80;;;27.60;99.90;;;;;;6154149;23;20933;-68
2023/08/18 16:03:35;;;;;;;4.33;4.13;;;27.60;99.90;;;;;;6154152;23;20419;-68
2023/08/18 16:06:05;;;;;;;4.23;4.03;;;27.60;99.90;;;;;;6153508;23;20423;-68
2023/08/18 16:08:32;;;;;;;4.43;4.13;;;27.60;99.90;;;;;;6152726;23;20429;-68
2023/08/18 16:11:00;;;;;;;4.70;4.50;;;27.60;99.90;;;;;;6153509;23;20442;-70
2023/08/18 16:13:28;;;;;;;4.53;4.23;;;27.60;99.90;;;;;;6153070;23;20429;-69
2023/08/18 16:15:56;;;;;;;3.87;3.77;;;27.50;99.90;;;;;;6152534;23;20813;-71
2023/08/18 16:18:22;;;;;;;4.23;3.90;;;27.50;99.90;;;;;;6153867;23;20414;-72
2023/08/18 16:20:49;;;;;;;4.80;4.50;;;27.50;99.90;;;;;;6153938;23;20414;-71
2023/08/18 16:23:16;;;;;;;4.30;4.10;;;27.50;99.90;;;;;;6153024;23;20419;-71
2023/08/18 16:25:43;;;;;;;3.20;3.10;;;27.50;99.90;;;;;;6151549;23;20441;-71
2023/08/18 16:28:09;;;;;;;4.63;4.33;;;27.50;99.90;;;;;;6153929;23;20419;-71
2023/08/18 16:30:40;;;;;;;5.90;5.43;;;27.50;99.90;;;;;;6153183;23;20983;-71
2023/08/18 16:33:07;;;;;;;4.37;4.07;;;27.40;99.90;;;;;;6149027;23;20403;-71
2023/08/18 16:35:34;;;;;;;3.97;3.77;;;27.40;99.90;;;;;;6153258;23;20438;-72
2023/08/18 16:38:00;;;;;;;4.60;4.30;;;27.30;99.90;;;;;;6153642;23;20422;-73
2023/08/18 16:40:27;;;;;;;4.47;4.17;;;27.30;99.90;;;;;;6152107;23;20415;-72
2023/08/18 16:42:56;;;;;;;4.27;4.07;;;27.30;99.90;;;;;;6153362;23;20426;-73
2023/08/18 16:45:23;;;;;;;5.07;4.77;;;27.30;99.90;;;;;;6152972;23;20443;-72
2023/08/18 16:47:51;;;;;;;5.37;4.97;;;27.30;99.90;;;;;;6152623;23;20449;-72
2023/08/18 16:50:18;;;;;;;4.50;4.20;;;27.30;99.90;;;;;;6152351;23;20419;-72
2023/08/18 16:52:45;;;;;;;5.67;5.17;;;27.20;99.90;;;;;;6152378;23;20422;-73